Time;durP1;ratioP1;P1;durP2;ratioP2;P2;SDS_P1;SDS_P2;PMS_P1;PMS_P2;Temp;Humidity;BMP_temperature;BMP_pressure;BME280_temperature;BME280_humidity;BME280_pressure;Samples;Min_cycle;Max_cycle;Signal;HPM_P1;HPM_P2
2022/02/23 00:00:10;;;;;;;25.08;4.13;;;4.60;99.90;;;;;;4993490;28;20269;-76
2022/02/23 00:02:37;;;;;;;27.00;3.35;;;4.60;99.90;;;;;;4993489;28;20640;-74
2022/02/23 00:05:06;;;;;;;20.33;3.75;;;4.60;99.90;;;;;;4992282;28;20045;-76
2022/02/23 00:07:32;;;;;;;19.70;3.85;;;4.60;99.90;;;;;;4974010;28;20042;-76
2022/02/23 00:09:59;;;;;;;27.27;3.83;;;4.60;99.90;;;;;;4973060;28;20054;-76
2022/02/23 00:12:26;;;;;;;28.50;4.13;;;4.70;99.90;;;;;;4992552;28;20147;-76
2022/02/23 00:14:53;;;;;;;22.08;4.05;;;4.70;99.90;;;;;;4993697;28;20056;-77
2022/02/23 00:17:22;;;;;;;22.90;3.55;;;4.70;99.90;;;;;;4991530;28;20264;-77
2022/02/23 00:19:48;;;;;;;29.02;3.97;;;4.70;99.90;;;;;;4994964;28;20076;-77
2022/02/23 00:22:15;;;;;;;29.73;4.65;;;4.70;99.90;;;;;;4994105;28;20057;-77
2022/02/23 00:24:43;;;;;;;25.27;4.25;;;4.70;99.90;;;;;;4994337;28;20050;-77
2022/02/23 00:27:09;;;;;;;25.58;4.03;;;4.60;99.90;;;;;;4992820;28;20089;-76
2022/02/23 00:29:36;;;;;;;23.05;3.67;;;4.60;99.90;;;;;;4993857;28;20142;-77
2022/02/23 00:32:04;;;;;;;17.73;3.70;;;4.60;99.90;;;;;;4976478;28;20049;-77
2022/02/23 00:34:31;;;;;;;20.42;3.83;;;4.60;99.90;;;;;;4993612;28;20050;-76
2022/02/23 00:36:58;;;;;;;29.70;3.95;;;4.50;99.90;;;;;;4991578;28;20058;-76
2022/02/23 00:39:25;;;;;;;24.73;4.47;;;4.50;99.90;;;;;;4992184;28;20064;-75
2022/02/23 00:41:52;;;;;;;20.00;3.20;;;4.50;99.90;;;;;;4992208;28;20553;-76
2022/02/23 00:44:19;;;;;;;24.67;4.47;;;4.50;99.90;;;;;;4993039;28;20507;-76
2022/02/23 00:46:49;;;;;;;22.38;3.83;;;4.50;99.90;;;;;;4992489;28;20409;-76
2022/02/23 00:49:15;;;;;;;20.98;4.38;;;4.50;99.90;;;;;;4991033;28;20046;-75
2022/02/23 00:51:42;;;;;;;27.83;4.72;;;4.50;99.90;;;;;;4993017;28;20046;-75
2022/02/23 00:54:09;;;;;;;17.17;3.35;;;4.50;99.90;;;;;;4994872;28;20064;-75
2022/02/23 00:56:36;;;;;;;19.88;3.55;;;4.50;99.90;;;;;;4979280;28;20403;-76
2022/02/23 00:59:02;;;;;;;17.98;3.65;;;4.50;99.90;;;;;;4996292;28;20045;-76
2022/02/23 01:01:29;;;;;;;26.23;4.32;;;4.50;99.90;;;;;;4996526;28;20402;-75
2022/02/23 01:03:56;;;;;;;24.95;5.10;;;4.50;99.90;;;;;;4997333;28;20125;-77
2022/02/23 01:06:23;;;;;;;15.55;3.58;;;4.50;99.90;;;;;;4981077;28;20053;-76
2022/02/23 01:08:50;;;;;;;18.55;3.95;;;4.50;99.90;;;;;;4997374;28;20760;-76
2022/02/23 01:11:19;;;;;;;17.27;3.38;;;4.50;99.90;;;;;;4994712;28;20096;-75
2022/02/23 01:13:47;;;;;;;26.73;3.67;;;4.50;99.90;;;;;;4980573;28;20050;-77
2022/02/23 01:16:14;;;;;;;22.55;4.13;;;4.50;99.90;;;;;;4997000;28;20653;-76
2022/02/23 01:18:42;;;;;;;28.15;4.22;;;4.40;99.90;;;;;;4996701;28;20037;-76
2022/02/23 01:21:09;;;;;;;22.30;3.60;;;4.40;99.90;;;;;;5006322;28;20045;-77
2022/02/23 01:23:36;;;;;;;26.00;3.65;;;4.40;99.90;;;;;;4998340;28;20049;-77
2022/02/23 01:26:04;;;;;;;26.55;3.88;;;4.40;99.90;;;;;;4980993;28;20070;-77
2022/02/23 01:28:32;;;;;;;23.02;3.95;;;4.50;99.90;;;;;;4998758;28;20054;-76
2022/02/23 01:31:00;;;;;;;24.27;3.85;;;4.50;99.90;;;;;;4996894;28;20049;-76
2022/02/23 01:33:28;;;;;;;25.15;4.13;;;4.50;99.90;;;;;;4978605;28;20042;-77
2022/02/23 01:35:54;;;;;;;24.15;3.95;;;4.60;99.90;;;;;;4996071;28;20084;-77
2022/02/23 01:38:21;;;;;;;22.65;4.22;;;4.60;99.90;;;;;;4997333;28;20050;-76
2022/02/23 01:40:48;;;;;;;19.48;3.70;;;4.70;99.90;;;;;;4996144;28;20652;-76
2022/02/23 01:43:15;;;;;;;16.48;4.40;;;4.70;99.90;;;;;;5012138;28;20509;-77
2022/02/23 01:45:42;;;;;;;28.70;4.03;;;4.70;99.90;;;;;;4996272;28;20057;-78
2022/02/23 01:48:09;;;;;;;26.75;5.15;;;4.60;99.90;;;;;;4996636;28;20746;-77
2022/02/23 01:50:36;;;;;;;25.90;5.13;;;4.70;99.90;;;;;;4994964;28;20507;-77
2022/02/23 01:53:03;;;;;;;19.10;4.25;;;4.70;99.90;;;;;;4996749;28;20237;-76
2022/02/23 01:55:30;;;;;;;25.30;4.03;;;4.70;99.90;;;;;;4976513;28;20054;-76
2022/02/23 01:57:57;;;;;;;29.88;5.07;;;4.80;99.90;;;;;;4985531;28;20175;-76
2022/02/23 02:00:24;;;;;;;29.05;4.78;;;4.80;99.90;;;;;;4996193;28;20521;-75
2022/02/23 02:02:51;;;;;;;35.88;4.30;;;4.70;99.90;;;;;;4997260;28;20052;-77
2022/02/23 02:05:18;;;;;;;23.55;4.68;;;4.80;99.90;;;;;;4996315;28;20495;-77
2022/02/23 02:07:44;;;;;;;20.98;3.42;;;4.80;99.90;;;;;;4997310;28;20084;-78
2022/02/23 02:10:11;;;;;;;23.58;3.80;;;4.80;99.90;;;;;;4995067;28;20707;-75
2022/02/23 02:12:38;;;;;;;18.50;5.03;;;4.80;99.90;;;;;;4996032;28;20058;-76
2022/02/23 02:15:07;;;;;;;28.90;4.90;;;4.80;99.90;;;;;;4996377;28;20061;-78
2022/02/23 02:17:34;;;;;;;31.65;5.20;;;4.80;99.90;;;;;;4978931;28;20423;-77
2022/02/23 02:20:00;;;;;;;25.75;4.25;;;4.80;99.90;;;;;;4995985;28;20061;-77
2022/02/23 02:22:28;;;;;;;25.70;4.78;;;4.80;99.90;;;;;;4994522;28;20056;-76
2022/02/23 02:24:56;;;;;;;18.65;4.43;;;4.80;99.90;;;;;;4997533;28;20136;-76
2022/02/23 02:27:23;;;;;;;31.10;5.20;;;4.80;99.90;;;;;;4996845;28;20054;-76
2022/02/23 02:29:50;;;;;;;22.58;4.25;;;4.80;99.90;;;;;;4995828;28;20077;-77
2022/02/23 02:32:17;;;;;;;34.63;5.20;;;4.80;99.90;;;;;;4996857;28;20092;-75
2022/02/23 02:34:46;;;;;;;27.55;4.80;;;4.80;99.90;;;;;;4994896;28;20054;-76
2022/02/23 02:37:14;;;;;;;24.77;4.28;;;4.80;99.90;;;;;;4996210;28;20103;-76
2022/02/23 02:39:42;;;;;;;24.45;5.20;;;4.80;99.90;;;;;;4975194;28;20061;-76
2022/02/23 02:42:10;;;;;;;25.10;5.50;;;4.80;99.90;;;;;;4995511;28;20046;-78
2022/02/23 02:44:36;;;;;;;30.10;4.60;;;4.80;99.90;;;;;;4993981;28;20050;-75
2022/02/23 02:47:04;;;;;;;23.02;4.75;;;4.80;99.90;;;;;;4995952;28;20125;-74
2022/02/23 02:49:31;;;;;;;30.50;5.10;;;4.80;99.90;;;;;;4993214;28;20224;-75
2022/02/23 02:51:58;;;;;;;25.63;4.32;;;4.70;99.90;;;;;;4995346;28;20045;-76
2022/02/23 02:54:25;;;;;;;29.13;4.75;;;4.70;99.90;;;;;;4995743;28;20498;-77
2022/02/23 02:56:57;;;;;;;20.38;4.22;;;4.60;99.90;;;;;;4996599;28;20041;-76
2022/02/23 02:59:24;;;;;;;25.35;5.05;;;4.60;99.90;;;;;;4996396;28;20054;-76
2022/02/23 03:01:50;;;;;;;27.90;4.63;;;4.60;99.90;;;;;;4994735;28;20042;-75
2022/02/23 03:04:17;;;;;;;29.02;4.70;;;4.50;99.90;;;;;;5011497;28;20046;-76
2022/02/23 03:06:44;;;;;;;27.33;4.93;;;4.50;99.90;;;;;;4996387;28;20077;-76
2022/02/23 03:09:11;;;;;;;26.25;4.53;;;4.50;99.90;;;;;;4993969;28;20061;-77
2022/02/23 03:11:38;;;;;;;24.23;4.75;;;4.50;99.90;;;;;;4994565;28;20042;-77
2022/02/23 03:14:05;;;;;;;33.53;5.38;;;4.50;99.90;;;;;;5010162;28;20041;-76
2022/02/23 03:16:31;;;;;;;31.08;5.78;;;4.50;99.90;;;;;;4993753;28;20068;-75
2022/02/23 03:18:58;;;;;;;26.50;4.32;;;4.40;99.90;;;;;;4995943;28;20057;-76
2022/02/23 03:21:25;;;;;;;30.55;4.85;;;4.40;99.90;;;;;;4995147;28;20123;-76
2022/02/23 03:23:52;;;;;;;21.27;4.93;;;4.40;99.90;;;;;;4996395;28;20038;-76
2022/02/23 03:26:19;;;;;;;31.95;4.90;;;4.30;99.90;;;;;;4994983;28;20048;-75
2022/02/23 03:28:45;;;;;;;32.53;4.93;;;4.30;99.90;;;;;;4993689;28;20061;-76
2022/02/23 03:31:13;;;;;;;22.98;4.28;;;4.30;99.90;;;;;;4994563;28;20041;-75
2022/02/23 03:33:42;;;;;;;10.55;3.92;;;4.30;99.90;;;;;;4995397;28;20064;-76
2022/02/23 03:36:11;;;;;;;25.83;5.38;;;4.30;99.90;;;;;;4994382;28;20133;-77
2022/02/23 03:38:39;;;;;;;44.67;5.47;;;4.30;99.90;;;;;;4994732;28;20056;-75
2022/02/23 03:41:06;;;;;;;20.73;5.03;;;4.30;99.90;;;;;;4994565;28;20048;-77
2022/02/23 03:43:36;;;;;;;23.15;4.78;;;4.30;99.90;;;;;;4995327;28;20134;-76
2022/02/23 03:46:03;;;;;;;23.50;5.22;;;4.30;99.90;;;;;;4995153;28;20053;-76
2022/02/23 03:48:30;;;;;;;21.35;4.53;;;4.30;99.90;;;;;;4994354;28;20805;-78
2022/02/23 03:50:57;;;;;;;19.73;4.05;;;4.30;99.90;;;;;;4977969;28;20045;-75
2022/02/23 03:53:24;;;;;;;43.15;5.57;;;4.30;99.90;;;;;;4994029;28;20084;-76
2022/02/23 03:55:51;;;;;;;31.92;5.35;;;4.30;99.90;;;;;;4993959;28;20054;-75
2022/02/23 03:58:18;;;;;;;31.83;4.95;;;4.30;99.90;;;;;;4995823;28;20060;-77
2022/02/23 04:00:44;;;;;;;22.98;4.55;;;4.30;99.90;;;;;;4994455;28;20086;-76
2022/02/23 04:03:11;;;;;;;24.50;5.03;;;4.30;99.90;;;;;;4995892;28;20517;-75
2022/02/23 04:05:41;;;;;;;29.77;5.38;;;4.30;99.90;;;;;;4978260;28;20053;-76
2022/02/23 04:08:08;;;;;;;31.35;5.03;;;4.40;99.90;;;;;;4993537;28;20053;-77
2022/02/23 04:10:35;;;;;;;22.70;4.05;;;4.40;99.90;;;;;;4993700;28;20491;-75
2022/02/23 04:13:05;;;;;;;20.52;3.47;;;4.40;99.90;;;;;;4990198;28;20133;-76
2022/02/23 04:15:32;;;;;;;20.40;4.15;;;4.40;99.90;;;;;;4990801;28;20066;-76
2022/02/23 04:17:59;;;;;;;24.05;4.53;;;4.40;99.90;;;;;;4974729;28;20085;-76
2022/02/23 04:20:26;;;;;;;33.45;5.65;;;4.50;99.90;;;;;;4990017;28;20050;-75
2022/02/23 04:22:53;;;;;;;34.25;5.55;;;4.40;99.90;;;;;;4990499;28;20423;-76
2022/02/23 04:25:20;;;;;;;35.03;5.07;;;4.50;99.90;;;;;;4989762;28;20054;-77
2022/02/23 04:27:48;;;;;;;27.30;5.13;;;4.40;99.90;;;;;;4988701;28;20045;-76
2022/02/23 04:30:15;;;;;;;24.98;4.05;;;4.50;99.90;;;;;;4975141;28;20137;-76
2022/02/23 04:32:42;;;;;;;24.80;4.25;;;4.40;99.90;;;;;;4990219;28;20348;-74
2022/02/23 04:35:09;;;;;;;24.80;4.47;;;4.40;99.90;;;;;;4995235;28;20153;-76
2022/02/23 04:37:36;;;;;;;29.33;5.30;;;4.30;99.90;;;;;;4993492;28;20058;-73
2022/02/23 04:40:04;;;;;;;19.58;4.55;;;4.30;99.90;;;;;;4992361;28;20060;-75
2022/02/23 04:42:31;;;;;;;34.47;5.32;;;4.30;99.90;;;;;;4993975;28;20108;-77
2022/02/23 04:45:00;;;;;;;27.77;5.30;;;4.30;99.90;;;;;;4992814;28;20055;-79
2022/02/23 04:47:29;;;;;;;23.02;5.75;;;4.20;99.90;;;;;;4993454;28;20277;-76
2022/02/23 04:49:56;;;;;;;26.70;4.90;;;4.20;99.90;;;;;;4992312;28;20058;-76
2022/02/23 04:52:24;;;;;;;47.92;6.10;;;4.10;99.90;;;;;;4991971;28;20100;-75
2022/02/23 04:54:54;;;;;;;25.27;4.97;;;4.10;99.90;;;;;;4995057;28;20057;-75
2022/02/23 04:57:20;;;;;;;26.45;4.70;;;4.00;99.90;;;;;;5006195;28;20989;-76
2022/02/23 04:59:48;;;;;;;21.23;5.20;;;4.00;99.90;;;;;;4993608;28;20048;-76
2022/02/23 05:02:15;;;;;;;26.15;7.18;;;4.00;99.90;;;;;;4977109;28;20426;-76
2022/02/23 05:04:42;;;;;;;29.02;6.85;;;3.90;99.90;;;;;;4993501;28;20514;-76
2022/02/23 05:07:09;;;;;;;33.28;5.55;;;3.90;99.90;;;;;;4992922;28;20056;-76
2022/02/23 05:09:37;;;;;;;24.75;6.32;;;3.90;99.90;;;;;;5000394;28;20041;-76
2022/02/23 05:12:06;;;;;;;35.63;6.07;;;3.80;99.90;;;;;;4994789;28;20143;-78
2022/02/23 05:14:34;;;;;;;47.33;6.15;;;3.80;99.90;;;;;;4993628;28;20046;-75
2022/02/23 05:17:01;;;;;;;24.83;5.80;;;3.80;99.90;;;;;;4994623;28;20050;-79
2022/02/23 05:19:29;;;;;;;28.77;6.60;;;3.70;99.90;;;;;;4993324;28;20057;-78
2022/02/23 05:21:56;;;;;;;29.92;6.28;;;3.70;99.90;;;;;;4992779;28;20042;-77
2022/02/23 05:24:23;;;;;;;38.92;6.95;;;3.70;99.90;;;;;;4976329;28;20115;-77
2022/02/23 05:26:50;;;;;;;26.38;6.30;;;3.70;99.90;;;;;;4993797;28;20127;-77
2022/02/23 05:29:17;;;;;;;39.78;7.65;;;3.60;99.90;;;;;;4993519;28;20100;-77
2022/02/23 05:31:44;;;;;;;27.35;5.57;;;3.60;99.90;;;;;;4991626;28;20309;-75
2022/02/23 05:34:11;;;;;;;41.85;6.93;;;3.50;99.90;;;;;;4994746;28;20109;-78
2022/02/23 05:36:38;;;;;;;31.05;7.43;;;3.50;99.90;;;;;;4993830;28;20050;-77
2022/02/23 05:39:07;;;;;;;43.40;7.97;;;3.50;99.90;;;;;;4992620;28;20144;-77
2022/02/23 05:41:34;;;;;;;32.47;6.53;;;3.50;99.90;;;;;;4996292;28;20370;-77
2022/02/23 05:44:01;;;;;;;36.33;7.80;;;3.40;99.90;;;;;;4990568;28;20049;-77
2022/02/23 05:46:29;;;;;;;34.45;8.07;;;3.40;99.90;;;;;;4995080;28;20034;-78
2022/02/23 05:48:56;;;;;;;23.88;6.35;;;3.40;99.90;;;;;;4991876;28;20046;-76
2022/02/23 05:51:36;;;;;;;39.05;7.10;;;3.40;99.90;;;;;;4994672;28;20042;-77
2022/02/23 05:54:04;;;;;;;30.67;7.22;;;3.40;99.90;;;;;;4995903;28;20050;-78
2022/02/23 05:56:31;;;;;;;35.40;7.68;;;3.40;99.90;;;;;;4991163;28;20120;-77
2022/02/23 05:58:59;;;;;;;41.40;8.38;;;3.40;99.90;;;;;;4977490;28;20054;-76
2022/02/23 06:01:25;;;;;;;28.33;7.75;;;3.40;99.90;;;;;;5011574;28;20507;-78
2022/02/23 06:03:52;;;;;;;30.60;8.85;;;3.40;99.90;;;;;;4994902;28;20104;-77
2022/02/23 06:06:19;;;;;;;37.75;9.27;;;3.30;99.90;;;;;;4996648;28;20129;-76
2022/02/23 06:08:46;;;;;;;32.90;8.05;;;3.30;99.90;;;;;;4996196;28;20541;-77
2022/02/23 06:11:16;;;;;;;30.27;8.63;;;3.30;99.90;;;;;;4993486;28;20034;-77
2022/02/23 06:13:43;;;;;;;38.33;8.40;;;3.30;99.90;;;;;;4995342;28;20054;-76
2022/02/23 06:16:10;;;;;;;31.02;8.02;;;3.30;99.90;;;;;;4994713;28;20800;-78
2022/02/23 06:18:37;;;;;;;33.38;8.18;;;3.30;99.90;;;;;;4993957;28;20128;-77
2022/02/23 06:21:04;;;;;;;42.20;9.90;;;3.30;99.90;;;;;;4988105;28;20057;-77
2022/02/23 06:23:32;;;;;;;38.78;8.55;;;3.30;99.90;;;;;;4993958;28;20061;-77
2022/02/23 06:25:59;;;;;;;31.23;8.73;;;3.30;99.90;;;;;;4994715;28;20053;-77
2022/02/23 06:28:27;;;;;;;24.20;9.27;;;3.30;99.90;;;;;;4995457;28;20038;-77
2022/02/23 06:30:53;;;;;;;29.30;10.20;;;3.30;99.90;;;;;;4995577;28;20054;-77
2022/02/23 06:33:23;;;;;;;37.10;9.15;;;3.40;99.90;;;;;;4979207;28;20061;-78
2022/02/23 06:35:50;;;;;;;38.47;11.75;;;3.40;99.90;;;;;;4993528;28;20050;-78
2022/02/23 06:38:17;;;;;;;32.10;10.27;;;3.40;99.90;;;;;;4974683;28;20542;-77
2022/02/23 06:40:44;;;;;;;36.50;8.95;;;3.50;99.90;;;;;;4993613;28;20497;-77
2022/02/23 06:43:15;;;;;;;37.97;9.30;;;3.40;99.90;;;;;;4995388;28;20128;-78
2022/02/23 06:45:46;;;;;;;32.55;8.25;;;3.40;99.90;;;;;;4994472;28;20080;-77
2022/02/23 06:48:14;;;;;;;30.30;9.00;;;3.50;99.90;;;;;;4992233;28;20061;-77
2022/02/23 06:50:41;;;;;;;42.38;9.93;;;3.50;99.90;;;;;;4972222;28;20057;-77
2022/02/23 06:53:08;;;;;;;35.58;10.10;;;3.50;99.90;;;;;;4995915;28;20495;-78
2022/02/23 06:55:35;;;;;;;31.05;9.50;;;3.60;99.90;;;;;;4993799;28;20049;-77
2022/02/23 06:58:02;;;;;;;34.42;8.25;;;3.60;99.90;;;;;;4976794;28;20042;-77
2022/02/23 07:00:36;;;;;;;23.50;8.10;;;3.60;99.90;;;;;;4995590;28;20046;-78
2022/02/23 07:03:03;;;;;;;27.38;8.82;;;3.60;99.90;;;;;;4993503;28;20038;-77
2022/02/23 07:05:30;;;;;;;46.63;9.15;;;3.70;99.90;;;;;;4994993;28;20089;-77
2022/02/23 07:08:02;;;;;;;39.30;8.18;;;3.70;99.90;;;;;;4978090;28;20438;-77
2022/02/23 07:10:32;;;;;;;34.20;7.95;;;3.70;99.90;;;;;;4976916;28;20054;-74
2022/02/23 07:13:00;;;;;;;44.90;9.30;;;3.70;99.90;;;;;;4994139;28;20056;-77
2022/02/23 07:15:27;;;;;;;36.55;9.25;;;3.70;99.90;;;;;;4978241;28;20045;-77
2022/02/23 07:17:55;;;;;;;36.88;8.55;;;3.70;99.90;;;;;;4997194;28;20754;-78
2022/02/23 07:20:22;;;;;;;25.20;7.18;;;3.70;99.90;;;;;;4982432;28;20052;-77
2022/02/23 07:22:50;;;;;;;30.27;8.80;;;3.70;99.90;;;;;;4990904;28;20057;-77
2022/02/23 07:25:18;;;;;;;39.53;8.32;;;3.60;99.90;;;;;;5007499;28;20049;-77
2022/02/23 07:27:45;;;;;;;27.13;8.30;;;3.60;99.90;;;;;;4992750;28;20407;-78
2022/02/23 07:30:16;;;;;;;32.72;8.32;;;3.60;99.90;;;;;;4993819;28;20050;-77
2022/02/23 07:32:48;;;;;;;42.25;9.30;;;3.60;99.90;;;;;;4996194;28;20053;-77
2022/02/23 07:35:15;;;;;;;26.17;6.93;;;3.50;99.90;;;;;;4995941;28;20177;-78
2022/02/23 07:37:44;;;;;;;30.38;7.35;;;3.50;99.90;;;;;;4995573;28;20057;-77
2022/02/23 07:40:18;;;;;;;21.98;7.25;;;3.50;99.90;;;;;;4995639;28;20085;-76
2022/02/23 07:43:06;;;;;;;31.75;8.23;;;3.60;99.90;;;;;;4984122;28;20562;-78
2022/02/23 07:45:40;;;;;;;34.17;8.70;;;3.60;99.90;;;;;;4994420;28;20124;-77
2022/02/23 07:48:08;;;;;;;26.02;7.95;;;3.60;99.90;;;;;;4996433;28;20045;-77
2022/02/23 07:50:35;;;;;;;36.85;8.75;;;3.70;99.90;;;;;;4995391;28;20052;-78
2022/02/23 07:53:02;;;;;;;29.08;9.40;;;3.80;99.90;;;;;;4994236;28;20050;-77
2022/02/23 07:55:29;;;;;;;29.13;7.97;;;3.80;99.90;;;;;;5002028;28;20041;-77
2022/02/23 07:57:58;;;;;;;28.17;8.27;;;3.90;99.90;;;;;;4993345;28;20038;-77
2022/02/23 08:00:25;;;;;;;42.72;8.95;;;3.90;99.90;;;;;;4995751;28;20046;-78
2022/02/23 08:02:52;;;;;;;35.70;8.43;;;4.00;99.90;;;;;;4994165;28;20060;-78
2022/02/23 08:05:18;;;;;;;31.73;9.32;;;4.00;99.90;;;;;;4994199;28;20649;-77
2022/02/23 08:07:47;;;;;;;33.85;8.20;;;4.10;99.90;;;;;;4995061;28;20061;-77
2022/02/23 08:10:14;;;;;;;34.85;9.05;;;4.10;99.90;;;;;;4992985;28;20108;-78
2022/02/23 08:12:40;;;;;;;36.38;9.18;;;4.20;99.90;;;;;;4994296;28;20123;-77
2022/02/23 08:20:41;;;;;;;26.75;7.70;;;4.40;99.90;;;;;;4993089;28;20054;-76
2022/02/23 08:23:10;;;;;;;33.42;8.60;;;4.50;99.90;;;;;;4995887;28;20050;-77
2022/02/23 08:25:37;;;;;;;31.13;8.32;;;4.50;99.90;;;;;;4994507;28;20751;-76
2022/02/23 08:28:04;;;;;;;32.53;9.20;;;4.50;99.90;;;;;;4994113;28;20046;-75
2022/02/23 08:30:31;;;;;;;30.38;7.40;;;4.60;99.90;;;;;;4992946;28;20076;-76
2022/02/23 08:33:02;;;;;;;23.27;6.68;;;4.70;99.90;;;;;;5000203;28;20132;-76
2022/02/23 08:35:42;;;;;;;25.63;8.97;;;4.70;99.90;;;;;;4994048;28;20042;-77
2022/02/23 08:38:11;;;;;;;27.73;8.15;;;5.00;99.90;;;;;;4993954;28;20057;-76
2022/02/23 08:40:43;;;;;;;26.35;8.07;;;5.00;99.90;;;;;;4992039;28;20156;-77
2022/02/23 08:43:11;;;;;;;22.88;8.80;;;5.10;99.90;;;;;;4994017;28;20092;-76
2022/02/23 08:45:38;;;;;;;27.90;9.10;;;5.20;99.90;;;;;;4994836;28;20054;-74
2022/02/23 08:48:08;;;;;;;27.73;8.73;;;5.40;99.90;;;;;;4991381;28;20592;-76
2022/02/23 08:50:36;;;;;;;20.95;9.35;;;5.40;99.90;;;;;;4992829;28;20098;-76
2022/02/23 08:53:03;;;;;;;27.05;8.93;;;5.60;99.90;;;;;;4992534;28;20046;-76
2022/02/23 08:55:29;;;;;;;39.83;9.85;;;5.80;99.90;;;;;;4993217;28;20068;-76
2022/02/23 08:58:01;;;;;;;24.63;9.90;;;6.00;99.90;;;;;;4990471;28;20057;-76
2022/02/23 09:00:28;;;;;;;24.20;9.88;;;6.10;99.90;;;;;;4995160;28;20487;-78
2022/02/23 09:02:55;;;;;;;21.38;8.60;;;6.10;99.90;;;;;;4992811;28;20054;-74
2022/02/23 09:05:22;;;;;;;28.35;9.32;;;6.10;99.90;;;;;;4994519;28;20598;-76
2022/02/23 09:07:49;;;;;;;24.77;9.32;;;6.10;99.90;;;;;;4993073;28;20211;-74
2022/02/23 09:10:16;;;;;;;28.52;10.23;;;6.20;99.90;;;;;;4992763;28;20053;-74
2022/02/23 09:12:43;;;;;;;27.45;11.45;;;6.30;99.90;;;;;;4993863;28;20050;-76
2022/02/23 09:15:12;;;;;;;27.08;10.40;;;6.30;99.90;;;;;;4994158;28;20065;-74
2022/02/23 09:17:44;;;;;;;23.92;10.10;;;6.30;99.90;;;;;;4995172;28;20050;-74
2022/02/23 09:20:12;;;;;;;27.38;11.93;;;6.50;99.90;;;;;;4995633;28;20082;-76
2022/02/23 09:22:39;;;;;;;20.30;10.98;;;6.60;99.90;;;;;;4980886;28;20049;-75
2022/02/23 09:25:06;;;;;;;23.88;10.95;;;6.80;99.90;;;;;;4994740;28;20092;-75
2022/02/23 09:27:38;;;;;;;26.05;11.90;;;7.00;99.90;;;;;;4979937;28;20125;-78
2022/02/23 09:30:08;;;;;;;21.13;11.65;;;7.10;99.90;;;;;;4999845;28;20430;-77
2022/02/23 09:32:36;;;;;;;22.63;11.40;;;7.10;99.90;;;;;;4996355;28;20648;-78
2022/02/23 09:35:03;;;;;;;19.70;11.52;;;7.00;99.90;;;;;;4997996;28;20666;-77
2022/02/23 09:37:30;;;;;;;30.65;13.73;;;7.20;99.90;;;;;;4997462;28;20104;-77
2022/02/23 09:39:57;;;;;;;24.90;14.07;;;7.20;99.90;;;;;;4996785;28;20057;-76
2022/02/23 09:42:29;;;;;;;19.48;12.15;;;7.40;99.90;;;;;;4998645;28;20515;-78
2022/02/23 09:45:00;;;;;;;27.38;15.20;;;7.60;99.90;;;;;;4994228;28;20539;-77
2022/02/23 09:47:41;;;;;;;31.65;16.75;;;7.80;99.90;;;;;;4996179;28;20046;-76
2022/02/23 09:50:20;;;;;;;27.85;14.85;;;7.70;99.90;;;;;;4993857;28;20042;-75
2022/02/23 09:52:49;;;;;;;26.77;14.13;;;8.00;99.90;;;;;;4997204;28;20107;-77
2022/02/23 09:55:16;;;;;;;17.88;14.10;;;8.30;99.90;;;;;;4996171;28;20118;-76
2022/02/23 09:57:43;;;;;;;25.73;15.48;;;8.40;99.90;;;;;;4991904;28;20710;-75
2022/02/23 10:00:11;;;;;;;29.55;16.33;;;8.40;99.90;;;;;;4997177;28;20058;-72
2022/02/23 10:02:38;;;;;;;27.42;15.95;;;8.30;99.90;;;;;;4996564;28;20069;-75
2022/02/23 10:05:07;;;;;;;29.50;16.23;;;8.10;99.90;;;;;;4994898;28;20136;-75
2022/02/23 10:07:38;;;;;;;22.25;15.85;;;8.00;99.90;;;;;;4994191;28;20046;-75
2022/02/23 10:10:10;;;;;;;23.85;16.17;;;8.30;99.90;;;;;;4990289;28;20141;-75
2022/02/23 10:12:38;;;;;;;23.67;17.27;;;8.50;99.90;;;;;;4995908;28;20080;-74
2022/02/23 10:15:11;;;;;;;20.67;17.40;;;8.40;99.90;;;;;;4996136;28;20153;-76
2022/02/23 10:17:44;;;;;;;25.58;17.02;;;8.70;99.90;;;;;;4994257;28;20545;-75
2022/02/23 10:20:22;;;;;;;29.73;19.02;;;8.80;99.90;;;;;;4996585;28;20705;-71
2022/02/23 10:22:51;;;;;;;19.35;17.58;;;8.70;99.90;;;;;;4979103;28;20077;-74
2022/02/23 10:25:25;;;;;;;24.17;18.27;;;8.70;99.90;;;;;;4994287;28;20050;-76
2022/02/23 10:28:14;;;;;;;22.02;18.77;;;8.80;99.90;;;;;;4994208;28;20049;-74
2022/02/23 10:30:50;;;;;;;18.70;17.17;;;8.90;99.90;;;;;;4991417;28;20344;-75
2022/02/23 10:33:22;;;;;;;23.30;17.80;;;8.80;99.90;;;;;;4977492;28;20054;-74
2022/02/23 10:36:13;;;;;;;21.35;16.98;;;8.90;99.90;;;;;;4994303;28;20341;-75
2022/02/23 10:38:45;;;;;;;23.90;17.40;;;9.20;99.90;;;;;;4993156;28;20502;-75
2022/02/23 10:41:26;;;;;;;20.02;17.52;;;9.20;99.90;;;;;;4990153;28;20418;-75
2022/02/23 10:43:54;;;;;;;23.02;17.58;;;9.40;99.90;;;;;;4995953;28;20069;-76
2022/02/23 10:46:23;;;;;;;22.55;17.77;;;9.10;99.90;;;;;;4994721;28;20050;-75
2022/02/23 10:48:53;;;;;;;25.83;16.23;;;9.00;99.90;;;;;;4994373;28;20053;-74
2022/02/23 10:51:29;;;;;;;21.40;16.52;;;8.80;99.90;;;;;;4977832;28;20125;-75
2022/02/23 10:54:08;;;;;;;27.02;16.80;;;8.80;99.90;;;;;;4995945;28;20056;-75
2022/02/23 10:56:37;;;;;;;18.80;16.95;;;9.00;99.90;;;;;;4995786;28;20606;-72
2022/02/23 10:59:06;;;;;;;24.77;17.85;;;8.90;99.90;;;;;;4988143;28;20034;-73
2022/02/23 11:01:34;;;;;;;22.17;16.95;;;9.00;99.90;;;;;;4996153;28;20050;-76
2022/02/23 11:04:03;;;;;;;33.50;19.20;;;9.20;99.90;;;;;;4977677;28;20045;-77
2022/02/23 11:06:31;;;;;;;19.90;17.88;;;9.20;99.90;;;;;;4997418;28;20507;-77
2022/02/23 11:08:58;;;;;;;18.38;16.77;;;9.30;99.90;;;;;;5004953;28;20048;-74
2022/02/23 11:11:27;;;;;;;21.10;16.58;;;9.20;99.90;;;;;;4986610;28;20050;-76
2022/02/23 11:14:01;;;;;;;23.85;16.88;;;9.20;99.90;;;;;;4992865;28;20041;-75
2022/02/23 11:16:33;;;;;;;17.73;15.95;;;9.30;99.90;;;;;;4992932;28;20073;-75
2022/02/23 11:19:02;;;;;;;18.83;16.73;;;9.40;99.90;;;;;;4993724;28;20224;-77
2022/02/23 11:21:34;;;;;;;17.73;15.73;;;9.40;99.90;;;;;;4994545;28;20060;-76
2022/02/23 11:24:04;;;;;;;17.73;16.08;;;9.70;99.90;;;;;;4992577;28;20049;-74
2022/02/23 11:26:35;;;;;;;17.25;16.05;;;9.70;99.90;;;;;;4993264;28;20123;-76
2022/02/23 11:29:23;;;;;;;19.00;15.70;;;9.60;99.90;;;;;;4974829;28;20042;-75
2022/02/23 11:31:51;;;;;;;18.27;15.93;;;9.60;99.90;;;;;;4994011;28;20049;-76
2022/02/23 11:34:22;;;;;;;18.33;15.63;;;9.70;99.90;;;;;;4996071;28;20132;-72
2022/02/23 11:36:52;;;;;;;17.38;16.15;;;9.90;99.90;;;;;;4992855;28;20388;-73
2022/02/23 11:39:20;;;;;;;17.80;16.10;;;9.40;99.90;;;;;;4993068;28;20040;-73
2022/02/23 11:41:58;;;;;;;18.23;16.52;;;9.30;99.90;;;;;;4994968;28;20049;-74
2022/02/23 11:44:31;;;;;;;19.52;17.67;;;9.30;99.90;;;;;;4977772;28;20050;-73
2022/02/23 11:47:09;;;;;;;21.38;17.80;;;9.30;99.90;;;;;;4994000;28;20061;-75
2022/02/23 11:49:37;;;;;;;20.52;18.52;;;9.20;99.90;;;;;;4994967;28;20058;-76
2022/02/23 11:52:09;;;;;;;21.23;18.95;;;9.20;99.90;;;;;;4977172;28;20046;-77
2022/02/23 11:54:49;;;;;;;20.25;18.30;;;9.60;99.90;;;;;;4995988;28;20054;-76
2022/02/23 11:57:48;;;;;;;19.30;17.85;;;9.70;99.90;;;;;;4990354;28;20431;-76
2022/02/23 12:00:30;;;;;;;19.02;17.23;;;9.80;99.90;;;;;;4994195;28;20733;-77
2022/02/23 12:02:57;;;;;;;20.13;18.35;;;9.90;99.90;;;;;;4988952;28;20453;-74
2022/02/23 12:05:33;;;;;;;20.77;18.80;;;9.90;99.90;;;;;;4989507;28;20046;-76
2022/02/23 12:07:59;;;;;;;19.60;18.17;;;9.90;99.90;;;;;;4996870;28;20046;-77
2022/02/23 12:10:29;;;;;;;20.65;18.48;;;9.70;99.90;;;;;;4992189;28;20088;-77
2022/02/23 12:12:57;;;;;;;20.35;18.17;;;9.80;99.90;;;;;;4991420;28;20065;-77
2022/02/23 12:15:40;;;;;;;20.23;18.58;;;9.70;99.90;;;;;;4993557;28;20477;-73
2022/02/23 12:18:13;;;;;;;20.20;18.35;;;9.60;99.90;;;;;;4991482;28;20287;-74
2022/02/23 12:20:49;;;;;;;20.23;18.60;;;9.50;99.90;;;;;;4992337;28;20050;-74
2022/02/23 12:23:19;;;;;;;20.05;18.70;;;9.70;99.90;;;;;;4992233;28;20085;-75
2022/02/23 12:26:24;;;;;;;22.08;20.20;;;9.40;99.90;;;;;;4991012;28;20065;-74
2022/02/23 12:28:57;;;;;;;19.98;18.38;;;9.30;99.90;;;;;;4959983;28;20136;-77
2022/02/23 12:31:30;;;;;;;20.15;18.15;;;9.50;99.90;;;;;;4972992;28;20173;-76
2022/02/23 12:34:05;;;;;;;19.98;17.98;;;9.60;99.90;;;;;;5006174;28;20319;-74
2022/02/23 12:36:54;;;;;;;19.50;17.60;;;9.90;99.90;;;;;;4970948;28;20352;-74
2022/02/23 12:39:26;;;;;;;20.85;17.98;;;9.80;99.90;;;;;;4987985;28;20048;-73
2022/02/23 12:42:02;;;;;;;20.33;18.75;;;9.90;99.90;;;;;;4988401;28;20522;-75
2022/02/23 12:44:32;;;;;;;20.45;18.25;;;9.70;99.90;;;;;;4988258;28;20049;-74
2022/02/23 12:47:02;;;;;;;19.13;17.38;;;9.60;99.90;;;;;;4990087;28;20057;-73
2022/02/23 12:49:30;;;;;;;18.92;17.00;;;9.70;99.90;;;;;;4990095;28;20069;-76
2022/02/23 12:51:58;;;;;;;20.80;18.65;;;9.90;99.90;;;;;;5006598;28;20054;-76
2022/02/23 12:54:26;;;;;;;18.90;17.20;;;9.90;99.90;;;;;;4997941;28;20061;-74
2022/02/23 12:56:55;;;;;;;19.65;17.92;;;10.00;99.90;;;;;;4976222;28;20344;-75